Flight Track Log - Related Links

Times and Time Zones

All times are in EDT time to prevent confusion due to time zone crossing. See the BJS542 flight status page for this flight to view local times or setup timezone preferences in your user account.

Time Position Orientation Groundspeed Altitude Reporting Facility
EDT Latitude Longitude Course Direction KTS MPH feet Rate Location/Type
Fri 03:48:10 PM 33.4333 -112.1500 270° West 251 289 6,200  Level Phoenix TRACON
Fri 03:49:06 PM 33.4800 -112.2056 315° West 289 333 8,700 2,746 Climbing Albuquerque Center
Fri 03:50:08 PM 33.5633 -112.1917 North 303 349 11,600 2,634 Climbing Albuquerque Center
Fri 03:51:09 PM 33.6558 -112.2208 345° North 342 394 14,100 2,439 Climbing Albuquerque Center
Fri 03:52:00 PM 33.9006 -112.8894 303° West  Level Estimated
Fri 03:52:11 PM 33.7558 -112.2508 346° North 366 421 16,600  Level Albuquerque Center
Fri 03:53:13 PM 33.8617 -112.2836 346° North 386 444 19,600 2,855 Climbing Albuquerque Center
Fri 03:54:15 PM 33.9703 -112.3161 346° North 397 457 22,500 2,613 Climbing Albuquerque Center
Fri 03:55:17 PM 34.0786 -112.3656 339° North 414 476 25,000 2,323 Climbing Albuquerque Center
Fri 03:56:19 PM 34.1844 -112.4322 332° Northwest 426 490 27,300 2,274 Climbing Albuquerque Center
Fri 03:57:21 PM 34.3183 -112.5150 333° Northwest 445 512 29,700 2,081 Climbing Albuquerque Center
Fri 03:58:23 PM 34.4336 -112.5850 333° Northwest 456 525 31,600 2,032 Climbing Albuquerque Center
Fri 03:59:25 PM 34.5506 -112.6594 332° Northwest 464 534 33,900 1,984 Climbing Albuquerque Center
Fri 04:00:27 PM 34.6419 -112.7747 314° West 473 544 35,700 1,790 Climbing Albuquerque Center
Fri 04:01:29 PM 34.7025 -112.9178 297° West 475 547 37,600 1,887 Climbing Albuquerque Center
Fri 04:02:31 PM 34.7603 -113.0611 296° West 475 547 39,600 1,984 Climbing Albuquerque Center
Fri 04:03:33 PM 34.8164 -113.2017 296° West 470 541 41,700 1,645 Climbing Albuquerque Center
Fri 04:04:35 PM 34.8800 -113.3611 296° West 451 519 43,000 655 Climbing Albuquerque Center
Fri 04:05:32 PM 34.9242 -113.4697 296° West 447 514 43,000  Level Los Angeles Center
Fri 04:06:34 PM 34.9911 -113.6397 296° West 458 527 43,000  Level Los Angeles Center
Fri 04:07:36 PM 35.0503 -113.7828 297° West 467 537 43,000  Level Los Angeles Center
Fri 04:08:38 PM 35.1086 -113.9269 296° West 472 543 43,000  Level Los Angeles Center
Fri 04:09:40 PM 35.1625 -114.0631 296° West 461 531 43,000  Level Los Angeles Center
Fri 04:10:42 PM 35.2186 -114.2078 295° West 465 535 43,000  Level Los Angeles Center
Fri 04:11:45 PM 35.2856 -114.3786 296° West 464 534 43,000  Level Los Angeles Center
Fri 04:12:47 PM 35.3408 -114.5203 296° West 462 532 43,000  Level Los Angeles Center
Fri 04:13:49 PM 35.3950 -114.6614 295° West 460 529 43,000  Level Los Angeles Center
Fri 04:14:51 PM 35.4508 -114.8072 295° West 466 536 43,000  Level Los Angeles Center
Fri 04:15:53 PM 35.5367 -114.9250 311° West 461 531 43,000  Level Los Angeles Center
Fri 04:16:00 PM 35.5377 -114.9264 311° West  Level FlightAware Approximate
Fri 04:16:55 PM 35.6222 -115.0400 312° West 457 526 43,000  Level Los Angeles Center
Fri 04:17:57 PM 35.7225 -115.1839 311° West 459 528 43,000  Level Los Angeles Center
Fri 04:18:59 PM 35.8064 -115.3033 311° West 460 529 43,000  Level Los Angeles Center
Fri 04:20:02 PM 35.8903 -115.4233 311° West 460 529 43,000  Level Los Angeles Center
Fri 04:21:04 PM 35.9736 -115.5439 311° West 459 528 43,000  Level Los Angeles Center
Fri 04:22:06 PM 36.0575 -115.6636 311° West 457 526 43,000  Level Los Angeles Center
Fri 04:23:08 PM 36.1347 -115.7919 307° West 458 527 43,000  Level Los Angeles Center
Fri 04:24:10 PM 36.2036 -115.9428 300° West 459 528 43,000  Level Los Angeles Center
Fri 04:25:12 PM 36.2658 -116.0792 300° West 455 524 43,000  Level Los Angeles Center
Fri 04:26:14 PM 36.3292 -116.2172 300° West 456 525 43,000  Level Los Angeles Center
Fri 04:27:16 PM 36.3922 -116.3542 300° West 458 527 43,000  Level Los Angeles Center
Fri 04:28:19 PM 36.4531 -116.4903 299° West 455 524 43,000  Level Los Angeles Center
Fri 04:29:21 PM 36.5267 -116.6544 299° West 455 524 43,000  Level Los Angeles Center
Fri 04:30:23 PM 36.5819 -116.7989 296° West 457 526 43,000  Level Los Angeles Center
Fri 04:31:25 PM 36.6311 -116.9425 293° West 458 527 43,000  Level Los Angeles Center
Fri 04:32:27 PM 36.6794 -117.0892 292° West 460 529 43,000  Level Los Angeles Center
Fri 04:33:29 PM 36.7261 -117.2375 291° West 462 532 43,000  Level Los Angeles Center
Fri 04:34:31 PM 36.7842 -117.4139 292° West 461 531 43,000  Level Los Angeles Center
Fri 04:35:33 PM 36.8328 -117.5708 291° West 461 531 43,000  Level Los Angeles Center
Fri 04:36:35 PM 36.8803 -117.7194 292° West 460 529 43,000  Level Los Angeles Center
Fri 04:37:10 PM 36.9075 -117.8072 291° West 461 531 43,000  Level Oakland Center
Fri 04:38:12 PM 36.9472 -117.9575 288° West 456 525 43,000 -537 Level Oakland Center
Fri 04:39:13 PM 36.9786 -118.1128 284° West 460 529 41,900 -1,268 Descending Oakland Center
Fri 04:40:15 PM 37.0089 -118.2689 284° West 462 532 40,400 -1,403 Descending Oakland Center
Fri 04:41:17 PM 37.0414 -118.4275 284° West 468 539 39,000 -1,161 Descending Oakland Center
Fri 04:42:19 PM 37.0753 -118.5994 284° West 458 527 38,000 -488 Descending Oakland Center
Fri 04:43:20 PM 37.1047 -118.7486 284° West 445 512 38,000  Level Oakland Center
Fri 04:44:22 PM 37.1333 -118.8983 284° West 443 510 38,000  Level Oakland Center
Fri 04:45:23 PM 37.1633 -119.0517 284° West 453 521 38,000  Level Oakland Center
Fri 04:46:25 PM 37.1922 -119.2047 283° West 453 521 38,000  Level Oakland Center
Fri 04:47:27 PM 37.2217 -119.3586 284° West 455 524 38,000  Level Oakland Center
Fri 04:48:28 PM 37.2503 -119.5106 283° West 452 520 38,000  Level Oakland Center
Fri 04:49:30 PM 37.2850 -119.6933 283° West 450 518 38,000  Level Oakland Center
Fri 04:50:31 PM 37.3136 -119.8500 283° West 453 521 38,000  Level Oakland Center
Fri 04:51:33 PM 37.3419 -120.0022 283° West 449 517 38,000  Level Oakland Center
Fri 04:52:35 PM 37.3700 -120.1558 283° West 449 517 38,000  Level Oakland Center
Fri 04:53:36 PM 37.3983 -120.3094 283° West 451 519 38,000 -780 Level Oakland Center
Fri 04:54:38 PM 37.4261 -120.4656 283° West 456 525 36,400 -1,742 Descending Oakland Center
Fri 04:55:40 PM 37.4536 -120.6222 283° West 459 528 34,400 -1,951 Descending Oakland Center
Fri 04:56:41 PM 37.4822 -120.7817 283° West 466 536 32,400 -1,951 Descending Oakland Center
Fri 04:57:43 PM 37.5108 -120.9444 283° West 473 544 30,400 -2,195 Descending Oakland Center
Fri 04:58:44 PM 37.5453 -121.1425 282° West 479 551 27,900 -2,098 Descending Oakland Center
Fri 04:59:46 PM 37.5714 -121.2889 283° West 473 544 26,100 -1,854 Descending Oakland Center
Fri 05:00:47 PM 37.5978 -121.4464 282° West 463 533 24,100 -1,951 Descending Oakland Center
Fri 05:01:49 PM 37.5692 -121.6008 257° West 447 514 22,100 -2,126 Descending Oakland Center
Fri 05:02:54 PM 37.5333 -121.7833 256° West 411 473 19,600 -2,112 Descending Northern Cal TRACON
Fri 05:03:54 PM 37.5500 -121.9167 279° West 400 460 17,700 -1,750 Descending Northern Cal TRACON
Fri 05:04:54 PM 37.6167 -122.0167 310° West 389 448 16,100 -2,077 Descending Northern Cal TRACON
Fri 05:06:56 PM 37.7897 -122.1661 326° Northwest 381 438 11,400 -2,054 Descending Oakland Center
Fri 05:07:58 PM 37.8586 -122.2492 316° Northwest 352 405 9,800 -1,756 Descending Oakland Center
Fri 05:08:59 PM 37.9186 -122.3222 316° Northwest 316 364 7,800 -1,854 Descending Oakland Center
Fri 05:10:01 PM 37.9750 -122.3917 316° Northwest 294 338 6,000 -1,366 Descending Oakland Center
Fri 05:11:02 PM 38.0489 -122.4228 342° North 272 313 5,000 -1,463 Descending Oakland Center
Fri 05:12:04 PM 38.1144 -122.3786 28° Northeast 266 306 3,000 -1,463 Descending Oakland Center
Fri 05:13:05 PM 38.1750 -122.3358 29° Northeast 247 284 2,000 -732 Descending Oakland Center
Fri 05:14:07 PM 38.2283 -122.3044 25° Northeast 218 251 1,500 -488 Descending Oakland Center
Fri 05:15:08 PM 38.2667 -122.2886 18° North 172 198 1,000 -590 Descending Oakland Center
Fri 05:16:09 PM 38.2394 -122.2689 150° Southeast 146 168 300 -689 Descending Oakland Center

Login

Don't have an account? Register now (free) for customized features, flight alerts, and more!